sensor_id;sensor_type;location;lat;lon;timestamp;pressure;altitude;pressure_sealevel;temperature;humidity
69214;BME280;56325;47.030;18.518;2023-07-02T00:02:06;99471.81;;;21.75;70.95
69214;BME280;56325;47.030;18.518;2023-07-02T00:04:41;99474.94;;;21.56;71.72
69214;BME280;56325;47.030;18.518;2023-07-02T00:07:17;99460.37;;;21.57;71.54
69214;BME280;56325;47.030;18.518;2023-07-02T00:09:52;99461.53;;;21.77;70.97
69214;BME280;56325;47.030;18.518;2023-07-02T00:12:27;99472.03;;;21.92;70.56
69214;BME280;56325;47.030;18.518;2023-07-02T00:15:02;99467.16;;;21.85;70.74
69214;BME280;56325;47.030;18.518;2023-07-02T00:17:36;99467.31;;;21.64;70.85
69214;BME280;56325;47.030;18.518;2023-07-02T00:20:13;99468.41;;;21.61;70.88
69214;BME280;56325;47.030;18.518;2023-07-02T00:22:51;99467.87;;;21.70;70.62
69214;BME280;56325;47.030;18.518;2023-07-02T00:25:28;99474.94;;;21.56;70.74
69214;BME280;56325;47.030;18.518;2023-07-02T00:28:02;99470.50;;;21.76;69.86
69214;BME280;56325;47.030;18.518;2023-07-02T00:30:37;99465.13;;;21.93;69.23
69214;BME280;56325;47.030;18.518;2023-07-02T00:33:11;99462.28;;;21.78;69.45
69214;BME280;56325;47.030;18.518;2023-07-02T00:35:46;99460.47;;;21.88;68.98
69214;BME280;56325;47.030;18.518;2023-07-02T00:38:21;99458.47;;;22.11;68.13
69214;BME280;56325;47.030;18.518;2023-07-02T00:40:56;99458.78;;;21.85;68.63
69214;BME280;56325;47.030;18.518;2023-07-02T00:43:31;99464.19;;;21.90;68.51
69214;BME280;56325;47.030;18.518;2023-07-02T00:46:06;99455.50;;;22.09;67.89
69214;BME280;56325;47.030;18.518;2023-07-02T00:48:40;99465.50;;;21.97;68.27
69214;BME280;56325;47.030;18.518;2023-07-02T00:51:17;99459.91;;;21.97;68.38
69214;BME280;56325;47.030;18.518;2023-07-02T00:53:54;99468.69;;;21.93;69.04
69214;BME280;56325;47.030;18.518;2023-07-02T00:56:29;99469.25;;;21.92;69.82
69214;BME280;56325;47.030;18.518;2023-07-02T00:59:03;99464.22;;;21.98;69.88
69214;BME280;56325;47.030;18.518;2023-07-02T01:01:40;99468.13;;;21.95;70.56
69214;BME280;56325;47.030;18.518;2023-07-02T01:04:14;99464.56;;;21.87;71.72
69214;BME280;56325;47.030;18.518;2023-07-02T01:06:51;99475.94;;;21.89;72.08
69214;BME280;56325;47.030;18.518;2023-07-02T01:09:32;99468.25;;;21.74;72.76
69214;BME280;56325;47.030;18.518;2023-07-02T01:12:08;99466.41;;;21.77;72.50
69214;BME280;56325;47.030;18.518;2023-07-02T01:14:48;99462.84;;;21.76;72.46
69214;BME280;56325;47.030;18.518;2023-07-02T01:17:27;99460.41;;;21.65;72.28
69214;BME280;56325;47.030;18.518;2023-07-02T01:20:13;99467.31;;;21.64;71.85
69214;BME280;56325;47.030;18.518;2023-07-02T01:22:48;99463.78;;;21.64;71.64
69214;BME280;56325;47.030;18.518;2023-07-02T01:25:24;99459.66;;;21.72;69.64
69214;BME280;56325;47.030;18.518;2023-07-02T01:27:59;99464.53;;;21.79;68.95
69214;BME280;56325;47.030;18.518;2023-07-02T01:30:35;99457.78;;;21.59;69.75
69214;BME280;56325;47.030;18.518;2023-07-02T01:33:14;99464.69;;;21.58;68.36
69214;BME280;56325;47.030;18.518;2023-07-02T01:35:51;99463.75;;;21.56;67.71
69214;BME280;56325;47.030;18.518;2023-07-02T01:38:26;99471.50;;;21.42;67.81
69214;BME280;56325;47.030;18.518;2023-07-02T01:41:00;99471.16;;;21.46;67.30
69214;BME280;56325;47.030;18.518;2023-07-02T01:43:35;99467.63;;;21.45;67.09
69214;BME280;56325;47.030;18.518;2023-07-02T01:46:09;99466.31;;;21.18;68.36
69214;BME280;56325;47.030;18.518;2023-07-02T01:48:44;99467.63;;;21.17;69.73
69214;BME280;56325;47.030;18.518;2023-07-02T01:51:20;99465.03;;;20.90;72.33
69214;BME280;56325;47.030;18.518;2023-07-02T01:53:54;99469.50;;;20.57;75.33
69214;BME280;56325;47.030;18.518;2023-07-02T01:56:29;99474.06;;;20.47;77.77
69214;BME280;56325;47.030;18.518;2023-07-02T01:59:05;99476.00;;;20.18;78.32
69214;BME280;56325;47.030;18.518;2023-07-02T02:01:39;99480.75;;;20.10;77.83
69214;BME280;56325;47.030;18.518;2023-07-02T02:04:15;99473.22;;;20.18;78.08
69214;BME280;56325;47.030;18.518;2023-07-02T02:06:51;99468.91;;;20.17;78.25
69214;BME280;56325;47.030;18.518;2023-07-02T02:09:26;99471.16;;;20.19;78.05
69214;BME280;56325;47.030;18.518;2023-07-02T02:12:01;99475.44;;;19.78;80.37
69214;BME280;56325;47.030;18.518;2023-07-02T02:14:36;99467.00;;;20.12;78.92
69214;BME280;56325;47.030;18.518;2023-07-02T02:17:10;99476.25;;;20.07;78.15
69214;BME280;56325;47.030;18.518;2023-07-02T02:19:45;99483.59;;;19.97;78.96
69214;BME280;56325;47.030;18.518;2023-07-02T02:22:21;99486.06;;;20.01;77.84
69214;BME280;56325;47.030;18.518;2023-07-02T02:24:55;99483.56;;;20.10;77.99
69214;BME280;56325;47.030;18.518;2023-07-02T02:27:30;99477.09;;;20.15;78.09
69214;BME280;56325;47.030;18.518;2023-07-02T02:30:07;99485.88;;;20.19;77.77
69214;BME280;56325;47.030;18.518;2023-07-02T02:32:42;99488.09;;;20.00;79.62
69214;BME280;56325;47.030;18.518;2023-07-02T02:35:17;99485.47;;;20.15;79.97
69214;BME280;56325;47.030;18.518;2023-07-02T02:37:53;99489.97;;;20.18;79.42
69214;BME280;56325;47.030;18.518;2023-07-02T02:40:27;99487.72;;;20.17;79.43
69214;BME280;56325;47.030;18.518;2023-07-02T02:43:02;99485.41;;;20.28;78.15
69214;BME280;56325;47.030;18.518;2023-07-02T02:45:36;99489.78;;;20.37;78.43
69214;BME280;56325;47.030;18.518;2023-07-02T02:48:11;99485.94;;;20.27;79.55
69214;BME280;56325;47.030;18.518;2023-07-02T02:50:46;99489.28;;;20.25;79.00
69214;BME280;56325;47.030;18.518;2023-07-02T02:53:23;99493.22;;;20.09;81.86
69214;BME280;56325;47.030;18.518;2023-07-02T02:55:57;99500.03;;;20.21;80.50
69214;BME280;56325;47.030;18.518;2023-07-02T02:58:32;99505.37;;;20.33;79.47
69214;BME280;56325;47.030;18.518;2023-07-02T03:01:06;99494.53;;;20.29;76.47
69214;BME280;56325;47.030;18.518;2023-07-02T03:03:44;99499.78;;;20.33;76.78
69214;BME280;56325;47.030;18.518;2023-07-02T03:06:19;99498.37;;;20.39;76.87
69214;BME280;56325;47.030;18.518;2023-07-02T03:08:55;99509.62;;;20.13;77.36
69214;BME280;56325;47.030;18.518;2023-07-02T03:11:29;99509.84;;;20.15;79.55
69214;BME280;56325;47.030;18.518;2023-07-02T03:14:04;99516.62;;;20.06;81.19
69214;BME280;56325;47.030;18.518;2023-07-02T03:16:38;99512.53;;;20.07;81.13
69214;BME280;56325;47.030;18.518;2023-07-02T03:19:13;99516.78;;;20.21;81.54
69214;BME280;56325;47.030;18.518;2023-07-02T03:21:49;99524.38;;;20.34;81.44
69214;BME280;56325;47.030;18.518;2023-07-02T03:24:25;99524.56;;;20.36;80.53
69214;BME280;56325;47.030;18.518;2023-07-02T03:26:59;99526.50;;;20.41;79.93
69214;BME280;56325;47.030;18.518;2023-07-02T03:29:34;99526.03;;;20.50;79.44
69214;BME280;56325;47.030;18.518;2023-07-02T03:32:11;99523.72;;;20.41;80.88
69214;BME280;56325;47.030;18.518;2023-07-02T03:34:45;99531.34;;;20.41;80.68
69214;BME280;56325;47.030;18.518;2023-07-02T03:37:20;99531.75;;;20.45;80.83
69214;BME280;56325;47.030;18.518;2023-07-02T03:39:56;99521.00;;;20.49;80.65
69214;BME280;56325;47.030;18.518;2023-07-02T03:42:32;99526.09;;;20.58;80.09
69214;BME280;56325;47.030;18.518;2023-07-02T03:45:08;99524.19;;;20.53;80.77
69214;BME280;56325;47.030;18.518;2023-07-02T03:47:42;99511.13;;;20.48;80.89
69214;BME280;56325;47.030;18.518;2023-07-02T03:50:17;99521.69;;;20.62;80.55
69214;BME280;56325;47.030;18.518;2023-07-02T03:52:52;99520.66;;;20.73;80.00
69214;BME280;56325;47.030;18.518;2023-07-02T03:55:28;99521.53;;;20.68;79.65
69214;BME280;56325;47.030;18.518;2023-07-02T03:58:02;99525.12;;;20.76;79.69
69214;BME280;56325;47.030;18.518;2023-07-02T04:00:37;99526.63;;;20.77;80.20
69214;BME280;56325;47.030;18.518;2023-07-02T04:03:12;99528.13;;;20.78;79.78
69214;BME280;56325;47.030;18.518;2023-07-02T04:05:46;99526.66;;;20.85;79.02
69214;BME280;56325;47.030;18.518;2023-07-02T04:08:21;99534.00;;;20.67;78.28
69214;BME280;56325;47.030;18.518;2023-07-02T04:10:59;99534.75;;;20.68;79.55
69214;BME280;56325;47.030;18.518;2023-07-02T04:13:33;99537.19;;;20.71;78.81
69214;BME280;56325;47.030;18.518;2023-07-02T04:16:08;99546.19;;;20.77;78.11
69214;BME280;56325;47.030;18.518;2023-07-02T04:18:42;99538.41;;;20.83;78.18
69214;BME280;56325;47.030;18.518;2023-07-02T04:21:17;99548.00;;;20.95;78.34
69214;BME280;56325;47.030;18.518;2023-07-02T04:23:51;99553.94;;;20.92;79.07
69214;BME280;56325;47.030;18.518;2023-07-02T04:26:28;99549.53;;;20.76;77.93
69214;BME280;56325;47.030;18.518;2023-07-02T04:29:22;99560.88;;;20.99;77.73
69214;BME280;56325;47.030;18.518;2023-07-02T04:31:57;99558.63;;;20.97;78.55
69214;BME280;56325;47.030;18.518;2023-07-02T04:34:31;99562.28;;;21.13;78.82
69214;BME280;56325;47.030;18.518;2023-07-02T04:37:08;99557.72;;;21.02;78.83
69214;BME280;56325;47.030;18.518;2023-07-02T04:39:43;99566.72;;;21.08;79.35
69214;BME280;56325;47.030;18.518;2023-07-02T04:42:19;99573.13;;;21.16;80.79
69214;BME280;56325;47.030;18.518;2023-07-02T04:44:54;99574.28;;;21.21;80.99
69214;BME280;56325;47.030;18.518;2023-07-02T04:47:28;99576.25;;;21.34;80.61
69214;BME280;56325;47.030;18.518;2023-07-02T04:50:03;99578.34;;;21.41;80.59
69214;BME280;56325;47.030;18.518;2023-07-02T04:52:39;99585.28;;;21.47;79.15
69214;BME280;56325;47.030;18.518;2023-07-02T04:55:14;99587.03;;;21.58;78.64
69214;BME280;56325;47.030;18.518;2023-07-02T04:57:50;99584.28;;;21.66;77.19
69214;BME280;56325;47.030;18.518;2023-07-02T05:00:25;99587.09;;;21.73;77.33
69214;BME280;56325;47.030;18.518;2023-07-02T05:02:59;99584.31;;;21.81;78.34
69214;BME280;56325;47.030;18.518;2023-07-02T05:05:34;99586.56;;;21.82;78.74
69214;BME280;56325;47.030;18.518;2023-07-02T05:08:08;99587.34;;;21.90;78.94
69214;BME280;56325;47.030;18.518;2023-07-02T05:10:43;99590.94;;;21.99;78.79
69214;BME280;56325;47.030;18.518;2023-07-02T05:13:19;99585.12;;;21.97;78.46
69214;BME280;56325;47.030;18.518;2023-07-02T05:15:54;99595.19;;;21.92;79.12
69214;BME280;56325;47.030;18.518;2023-07-02T05:18:28;99589.78;;;21.94;80.00
69214;BME280;56325;47.030;18.518;2023-07-02T05:21:03;99582.97;;;22.10;80.05
69214;BME280;56325;47.030;18.518;2023-07-02T05:23:37;99574.37;;;22.08;77.83
69214;BME280;56325;47.030;18.518;2023-07-02T05:26:12;99583.53;;;22.09;76.14
69214;BME280;56325;47.030;18.518;2023-07-02T05:28:48;99581.69;;;22.11;76.40
69214;BME280;56325;47.030;18.518;2023-07-02T05:31:22;99579.66;;;22.27;75.30
69214;BME280;56325;47.030;18.518;2023-07-02T05:33:57;99573.16;;;22.32;76.21
69214;BME280;56325;47.030;18.518;2023-07-02T05:36:32;99575.97;;;22.40;74.42
69214;BME280;56325;47.030;18.518;2023-07-02T05:39:07;99579.16;;;22.44;71.56
69214;BME280;56325;47.030;18.518;2023-07-02T05:41:42;99581.97;;;22.51;70.71
69214;BME280;56325;47.030;18.518;2023-07-02T05:44:18;99583.09;;;22.71;69.47
69214;BME280;56325;47.030;18.518;2023-07-02T05:46:52;99581.63;;;22.85;70.49
69214;BME280;56325;47.030;18.518;2023-07-02T05:49:27;99585.38;;;22.80;68.01
69214;BME280;56325;47.030;18.518;2023-07-02T05:52:02;99581.63;;;22.85;69.19
69214;BME280;56325;47.030;18.518;2023-07-02T05:54:39;99589.69;;;22.97;69.47
69214;BME280;56325;47.030;18.518;2023-07-02T05:57:14;99599.41;;;22.96;68.90
69214;BME280;56325;47.030;18.518;2023-07-02T05:59:50;99595.28;;;22.89;67.87
69214;BME280;56325;47.030;18.518;2023-07-02T06:02:54;99598.38;;;23.62;65.12
69214;BME280;56325;47.030;18.518;2023-07-02T06:05:30;99598.38;;;23.62;65.12
69214;BME280;56325;47.030;18.518;2023-07-02T06:08:04;99593.22;;;23.20;64.02
69214;BME280;56325;47.030;18.518;2023-07-02T06:10:39;99597.31;;;23.34;61.47
69214;BME280;56325;47.030;18.518;2023-07-02T06:13:13;99588.66;;;23.47;63.90
69214;BME280;56325;47.030;18.518;2023-07-02T06:15:48;99581.56;;;23.46;62.14
69214;BME280;56325;47.030;18.518;2023-07-02T06:18:24;99589.84;;;23.37;63.24
69214;BME280;56325;47.030;18.518;2023-07-02T06:20:59;99594.28;;;23.63;62.24
69214;BME280;56325;47.030;18.518;2023-07-02T06:23:40;99595.59;;;23.54;60.72
69214;BME280;56325;47.030;18.518;2023-07-02T06:26:15;99598.00;;;23.65;60.61
69214;BME280;56325;47.030;18.518;2023-07-02T06:28:50;99599.88;;;23.63;62.87
69214;BME280;56325;47.030;18.518;2023-07-02T06:31:24;99607.00;;;23.48;63.74
69214;BME280;56325;47.030;18.518;2023-07-02T06:34:00;99605.13;;;23.51;60.61
69214;BME280;56325;47.030;18.518;2023-07-02T06:36:35;99598.09;;;22.97;62.05
69214;BME280;56325;47.030;18.518;2023-07-02T06:39:10;99614.53;;;23.23;62.49
69214;BME280;56325;47.030;18.518;2023-07-02T06:41:45;99608.19;;;23.07;61.41
69214;BME280;56325;47.030;18.518;2023-07-02T06:44:21;99608.16;;;23.30;63.38
69214;BME280;56325;47.030;18.518;2023-07-02T06:46:56;99613.41;;;23.34;62.49
69214;BME280;56325;47.030;18.518;2023-07-02T06:49:32;99607.44;;;23.07;59.82
69214;BME280;56325;47.030;18.518;2023-07-02T06:52:07;99613.41;;;23.18;62.06
69214;BME280;56325;47.030;18.518;2023-07-02T06:54:42;99601.81;;;23.07;62.29
69214;BME280;56325;47.030;18.518;2023-07-02T06:57:16;99614.16;;;22.81;60.06
69214;BME280;56325;47.030;18.518;2023-07-02T06:59:51;99621.00;;;22.65;60.17
69214;BME280;56325;47.030;18.518;2023-07-02T07:02:26;99616.22;;;22.88;60.30
69214;BME280;56325;47.030;18.518;2023-07-02T07:05:02;99618.97;;;22.65;64.47
69214;BME280;56325;47.030;18.518;2023-07-02T07:07:37;99623.31;;;22.81;61.20
69214;BME280;56325;47.030;18.518;2023-07-02T07:10:12;99610.63;;;23.03;59.53
69214;BME280;56325;47.030;18.518;2023-07-02T07:12:46;99615.22;;;22.70;62.76
69214;BME280;56325;47.030;18.518;2023-07-02T07:15:21;99619.72;;;22.73;59.68
69214;BME280;56325;47.030;18.518;2023-07-02T07:17:55;99608.94;;;23.08;61.18
69214;BME280;56325;47.030;18.518;2023-07-02T07:20:31;99607.63;;;23.16;58.88
69214;BME280;56325;47.030;18.518;2023-07-02T07:23:06;99610.91;;;23.76;58.25
69214;BME280;56325;47.030;18.518;2023-07-02T07:25:40;99599.97;;;23.95;56.73
69214;BME280;56325;47.030;18.518;2023-07-02T07:28:15;99606.69;;;24.00;57.38
69214;BME280;56325;47.030;18.518;2023-07-02T07:30:50;99605.34;;;24.08;57.41
69214;BME280;56325;47.030;18.518;2023-07-02T07:33:25;99613.19;;;24.17;56.55
69214;BME280;56325;47.030;18.518;2023-07-02T07:36:00;99605.00;;;24.04;55.86
69214;BME280;56325;47.030;18.518;2023-07-02T07:38:35;99609.34;;;23.90;55.46
69214;BME280;56325;47.030;18.518;2023-07-02T07:41:10;99620.41;;;23.88;56.21
69214;BME280;56325;47.030;18.518;2023-07-02T07:43:44;99619.69;;;23.80;56.15
69214;BME280;56325;47.030;18.518;2023-07-02T07:46:19;99624.22;;;23.60;55.82
69214;BME280;56325;47.030;18.518;2023-07-02T07:48:57;99620.28;;;23.63;56.22
69214;BME280;56325;47.030;18.518;2023-07-02T07:51:32;99628.31;;;23.74;56.82
69214;BME280;56325;47.030;18.518;2023-07-02T07:54:09;99625.09;;;23.85;56.27
69214;BME280;56325;47.030;18.518;2023-07-02T07:56:43;99638.97;;;23.76;57.05
69214;BME280;56325;47.030;18.518;2023-07-02T07:59:18;99638.81;;;23.66;56.45
69214;BME280;56325;47.030;18.518;2023-07-02T08:01:52;99634.50;;;23.58;55.87
69214;BME280;56325;47.030;18.518;2023-07-02T08:04:27;99639.59;;;23.29;56.85
69214;BME280;56325;47.030;18.518;2023-07-02T08:07:03;99629.13;;;23.37;57.36
69214;BME280;56325;47.030;18.518;2023-07-02T08:09:39;99640.72;;;23.18;57.79
69214;BME280;56325;47.030;18.518;2023-07-02T08:12:14;99642.78;;;23.33;58.18
69214;BME280;56325;47.030;18.518;2023-07-02T08:14:49;99651.91;;;23.56;57.65
69214;BME280;56325;47.030;18.518;2023-07-02T08:17:23;99651.78;;;24.09;57.11
69214;BME280;56325;47.030;18.518;2023-07-02T08:19:58;99653.53;;;24.37;56.72
69214;BME280;56325;47.030;18.518;2023-07-02T08:22:34;99644.63;;;24.24;56.25
69214;BME280;56325;47.030;18.518;2023-07-02T08:25:08;99648.31;;;24.34;56.34
69214;BME280;56325;47.030;18.518;2023-07-02T08:27:43;99649.72;;;24.50;56.63
69214;BME280;56325;47.030;18.518;2023-07-02T08:30:17;99641.84;;;24.56;55.36
69214;BME280;56325;47.030;18.518;2023-07-02T08:32:52;99653.59;;;24.95;53.19
69214;BME280;56325;47.030;18.518;2023-07-02T08:35:28;99654.16;;;25.18;53.44
69214;BME280;56325;47.030;18.518;2023-07-02T08:38:03;99655.31;;;25.15;52.29
69214;BME280;56325;47.030;18.518;2023-07-02T08:40:38;99657.69;;;25.43;52.70
69214;BME280;56325;47.030;18.518;2023-07-02T08:43:14;99650.31;;;25.31;51.90
69214;BME280;56325;47.030;18.518;2023-07-02T08:45:48;99652.34;;;25.55;51.56
69214;BME280;56325;47.030;18.518;2023-07-02T08:48:23;99659.34;;;25.71;51.80
69214;BME280;56325;47.030;18.518;2023-07-02T08:50:59;99651.13;;;25.66;51.71
69214;BME280;56325;47.030;18.518;2023-07-02T08:53:36;99650.16;;;25.88;49.60
69214;BME280;56325;47.030;18.518;2023-07-02T08:56:10;99654.94;;;25.95;49.56
69214;BME280;56325;47.030;18.518;2023-07-02T08:58:45;99660.13;;;26.16;50.44
69214;BME280;56325;47.030;18.518;2023-07-02T09:01:20;99660.72;;;26.14;49.65
69214;BME280;56325;47.030;18.518;2023-07-02T09:03:58;99675.31;;;26.38;50.68
69214;BME280;56325;47.030;18.518;2023-07-02T09:06:34;99666.84;;;26.38;50.25
69214;BME280;56325;47.030;18.518;2023-07-02T09:09:10;99667.81;;;26.50;50.01
69214;BME280;56325;47.030;18.518;2023-07-02T09:11:48;99667.38;;;26.81;50.12
69214;BME280;56325;47.030;18.518;2023-07-02T09:14:24;99675.03;;;26.43;49.35
69214;BME280;56325;47.030;18.518;2023-07-02T09:17:04;99683.16;;;26.22;50.88
69214;BME280;56325;47.030;18.518;2023-07-02T09:19:49;99683.06;;;26.47;50.83
69214;BME280;56325;47.030;18.518;2023-07-02T09:22:23;99680.59;;;26.78;50.72
69214;BME280;56325;47.030;18.518;2023-07-02T09:25:01;99687.50;;;26.67;49.47
69214;BME280;56325;47.030;18.518;2023-07-02T09:27:36;99684.09;;;26.69;50.71
69214;BME280;56325;47.030;18.518;2023-07-02T09:30:13;99684.41;;;27.00;49.48
69214;BME280;56325;47.030;18.518;2023-07-02T09:32:49;99686.66;;;27.01;48.33
69214;BME280;56325;47.030;18.518;2023-07-02T09:35:24;99689.31;;;26.99;48.21
69214;BME280;56325;47.030;18.518;2023-07-02T09:37:58;99697.53;;;27.15;48.62
69214;BME280;56325;47.030;18.518;2023-07-02T09:40:35;99693.03;;;27.02;49.14
69214;BME280;56325;47.030;18.518;2023-07-02T09:43:12;99696.66;;;27.12;47.88
69214;BME280;56325;47.030;18.518;2023-07-02T09:45:48;99693.47;;;26.98;47.76
69214;BME280;56325;47.030;18.518;2023-07-02T09:48:25;99688.97;;;27.22;49.16
69214;BME280;56325;47.030;18.518;2023-07-02T09:51:01;99694.47;;;27.30;48.44
69214;BME280;56325;47.030;18.518;2023-07-02T09:53:38;99690.75;;;27.27;46.63
69214;BME280;56325;47.030;18.518;2023-07-02T09:56:13;99692.06;;;27.17;46.84
69214;BME280;56325;47.030;18.518;2023-07-02T09:58:48;99693.88;;;27.31;47.59
69214;BME280;56325;47.030;18.518;2023-07-02T10:01:23;99692.75;;;27.44;47.27
69214;BME280;56325;47.030;18.518;2023-07-02T10:03:58;99685.69;;;27.26;48.77
69214;BME280;56325;47.030;18.518;2023-07-02T10:06:44;99690.75;;;27.27;48.49
69214;BME280;56325;47.030;18.518;2023-07-02T10:09:19;99683.97;;;27.03;49.86
69214;BME280;56325;47.030;18.518;2023-07-02T10:11:55;99683.88;;;27.11;51.80
69214;BME280;56325;47.030;18.518;2023-07-02T10:14:40;99692.09;;;27.26;49.76
69214;BME280;56325;47.030;18.518;2023-07-02T10:17:25;99688.72;;;27.37;49.45
69214;BME280;56325;47.030;18.518;2023-07-02T10:20:04;99687.59;;;27.60;49.10
69214;BME280;56325;47.030;18.518;2023-07-02T10:22:43;99689.47;;;27.01;49.18
69214;BME280;56325;47.030;18.518;2023-07-02T10:25:24;99690.47;;;26.96;49.88
69214;BME280;56325;47.030;18.518;2023-07-02T10:28:00;99685.06;;;27.18;47.20
69214;BME280;56325;47.030;18.518;2023-07-02T10:30:37;99686.34;;;27.43;47.09
69214;BME280;56325;47.030;18.518;2023-07-02T10:33:13;99678.53;;;27.61;47.67
69214;BME280;56325;47.030;18.518;2023-07-02T10:35:49;99677.97;;;27.72;48.25
69214;BME280;56325;47.030;18.518;2023-07-02T10:38:24;99681.37;;;27.90;48.42
69214;BME280;56325;47.030;18.518;2023-07-02T10:41:00;99679.13;;;27.79;48.44
69214;BME280;56325;47.030;18.518;2023-07-02T10:43:36;99678.56;;;27.71;47.48
69214;BME280;56325;47.030;18.518;2023-07-02T10:46:18;99673.06;;;28.12;47.67
69214;BME280;56325;47.030;18.518;2023-07-02T10:48:53;99666.81;;;27.84;46.88
69214;BME280;56325;47.030;18.518;2023-07-02T10:51:28;99674.97;;;27.61;48.50
69214;BME280;56325;47.030;18.518;2023-07-02T10:54:03;99678.41;;;28.07;47.85
69214;BME280;56325;47.030;18.518;2023-07-02T10:56:41;99673.31;;;28.54;46.38
69214;BME280;56325;47.030;18.518;2023-07-02T10:59:24;99674.69;;;28.34;45.06
69214;BME280;56325;47.030;18.518;2023-07-02T11:01:59;99671.25;;;28.45;45.43
69214;BME280;56325;47.030;18.518;2023-07-02T11:04:36;99665.53;;;28.64;44.27
69214;BME280;56325;47.030;18.518;2023-07-02T11:07:14;99665.66;;;28.76;43.96
69214;BME280;56325;47.030;18.518;2023-07-02T11:09:51;99660.97;;;29.00;43.66
69214;BME280;56325;47.030;18.518;2023-07-02T11:12:29;99662.50;;;28.91;43.32
69214;BME280;56325;47.030;18.518;2023-07-02T11:15:09;99658.19;;;28.90;43.30
69214;BME280;56325;47.030;18.518;2023-07-02T11:17:43;99653.19;;;29.10;43.51
69214;BME280;56325;47.030;18.518;2023-07-02T11:20:18;99660.13;;;28.78;45.16
69214;BME280;56325;47.030;18.518;2023-07-02T11:22:52;99654.19;;;28.24;45.97
69214;BME280;56325;47.030;18.518;2023-07-02T11:25:27;99663.94;;;27.55;46.86
69214;BME280;56325;47.030;18.518;2023-07-02T11:28:02;99655.94;;;28.00;45.38
69214;BME280;56325;47.030;18.518;2023-07-02T11:30:46;99660.41;;;27.74;46.63
69214;BME280;56325;47.030;18.518;2023-07-02T11:33:32;99663.69;;;28.09;46.75
69214;BME280;56325;47.030;18.518;2023-07-02T11:36:07;99662.03;;;28.16;47.46
69214;BME280;56325;47.030;18.518;2023-07-02T11:38:42;99656.34;;;28.54;46.72
69214;BME280;56325;47.030;18.518;2023-07-02T11:41:17;99647.31;;;28.36;47.05
69214;BME280;56325;47.030;18.518;2023-07-02T11:43:54;99660.25;;;28.39;46.26
69214;BME280;56325;47.030;18.518;2023-07-02T11:46:30;99657.25;;;28.47;45.74
69214;BME280;56325;47.030;18.518;2023-07-02T11:49:04;99666.41;;;28.67;44.67
69214;BME280;56325;47.030;18.518;2023-07-02T11:51:42;99658.75;;;28.98;44.94
69214;BME280;56325;47.030;18.518;2023-07-02T11:54:21;99659.31;;;29.07;44.07
69214;BME280;56325;47.030;18.518;2023-07-02T11:56:55;99661.94;;;28.83;43.76
69214;BME280;56325;47.030;18.518;2023-07-02T11:59:30;99676.97;;;28.86;43.75
69214;BME280;56325;47.030;18.518;2023-07-02T12:02:09;99668.88;;;28.51;43.68
69214;BME280;56325;47.030;18.518;2023-07-02T12:04:46;99674.38;;;28.01;46.33
69214;BME280;56325;47.030;18.518;2023-07-02T12:07:21;99680.16;;;27.74;47.23
69214;BME280;56325;47.030;18.518;2023-07-02T12:09:56;99668.44;;;27.78;46.90
69214;BME280;56325;47.030;18.518;2023-07-02T12:12:30;99670.81;;;27.81;46.68
69214;BME280;56325;47.030;18.518;2023-07-02T12:15:06;99673.03;;;27.63;46.50
69214;BME280;56325;47.030;18.518;2023-07-02T12:17:42;99674.53;;;27.74;47.42
69214;BME280;56325;47.030;18.518;2023-07-02T12:20:16;99678.22;;;27.57;47.62
69214;BME280;56325;47.030;18.518;2023-07-02T12:22:51;99675.88;;;27.73;47.88
69214;BME280;56325;47.030;18.518;2023-07-02T12:25:26;99672.91;;;27.61;47.41
69214;BME280;56325;47.030;18.518;2023-07-02T12:28:02;99669.50;;;27.72;46.89
69214;BME280;56325;47.030;18.518;2023-07-02T12:30:36;99681.53;;;27.63;47.73
69214;BME280;56325;47.030;18.518;2023-07-02T12:33:12;99682.88;;;27.72;46.67
69214;BME280;56325;47.030;18.518;2023-07-02T12:35:50;99661.91;;;28.04;47.21
69214;BME280;56325;47.030;18.518;2023-07-02T12:38:25;99676.03;;;27.85;46.66
69214;BME280;56325;47.030;18.518;2023-07-02T12:40:59;99667.69;;;27.77;47.21
69214;BME280;56325;47.030;18.518;2023-07-02T12:43:34;99665.75;;;28.18;47.18
69214;BME280;56325;47.030;18.518;2023-07-02T12:46:09;99671.72;;;28.42;46.80
69214;BME280;56325;47.030;18.518;2023-07-02T12:48:44;99664.84;;;28.54;45.22
69214;BME280;56325;47.030;18.518;2023-07-02T12:51:19;99670.34;;;28.52;43.92
69214;BME280;56325;47.030;18.518;2023-07-02T12:53:54;99660.06;;;29.07;43.75
69214;BME280;56325;47.030;18.518;2023-07-02T12:56:28;99652.41;;;29.41;42.84
69214;BME280;56325;47.030;18.518;2023-07-02T12:59:03;99644.53;;;29.39;43.67
69214;BME280;56325;47.030;18.518;2023-07-02T13:01:38;99658.84;;;29.84;41.75
69214;BME280;56325;47.030;18.518;2023-07-02T13:04:13;99646.94;;;29.97;42.61
69214;BME280;56325;47.030;18.518;2023-07-02T13:06:49;99651.22;;;30.08;40.73
69214;BME280;56325;47.030;18.518;2023-07-02T13:09:24;99651.22;;;29.86;41.04
69214;BME280;56325;47.030;18.518;2023-07-02T13:11:58;99646.41;;;30.10;40.14
69214;BME280;56325;47.030;18.518;2023-07-02T13:14:33;99649.31;;;29.79;40.59
69214;BME280;56325;47.030;18.518;2023-07-02T13:17:08;99644.75;;;29.53;41.36
69214;BME280;56325;47.030;18.518;2023-07-02T13:19:44;99644.88;;;29.55;40.68
69214;BME280;56325;47.030;18.518;2023-07-02T13:22:18;99643.41;;;29.54;39.43
69214;BME280;56325;47.030;18.518;2023-07-02T13:24:53;99651.75;;;29.94;39.31
69214;BME280;56325;47.030;18.518;2023-07-02T13:27:28;99650.00;;;30.11;39.20
69214;BME280;56325;47.030;18.518;2023-07-02T13:30:02;99652.09;;;30.10;39.60
69214;BME280;56325;47.030;18.518;2023-07-02T13:32:37;99645.00;;;30.44;39.36
69214;BME280;56325;47.030;18.518;2023-07-02T13:35:13;99645.22;;;30.70;38.80